Data for 06/27/2008

Time Sea-Level Adjusted Pressure Absolute Pressure Temperature Relative Humidity Dew Point   
(mb) (inHg) (mb) (inHg) (C) (F) (%) (C) (F)
00:05 1018 30.06 847 25.01 17.6 63.6 36 2.5 36.5
00:10 1018 30.06 847 25.01 17.4 63.3 36 2.3 36.1
00:15 1018 30.06 847 25.01 17.2 62.9 37 2.5 36.5
00:20 1018 30.06 847 25.01 17 62.5 37 2.5 36.4
00:25 1018 30.06 847 25.01 16.8 62.2 38 2.7 36.8
00:30 1018 30.06 848 25.04 16.6 61.8 39 2.6 36.6
00:35 1018 30.06 848 25.04 16.4 61.5 39 2.3 36.2
00:40 1019 30.09 848 25.04 16.2 61.2 42 3.6 38.4
00:45 1019 30.09 848 25.04 15.3 59.6 44 3.3 37.9
00:50 1019 30.09 848 25.04 15.2 59.3 43 2.6 36.7
00:55 1019 30.09 848 25.04 15.5 60 42 2.8 37.1
01:00 1019 30.09 848 25.04 15.5 59.9 41 2.6 36.6
01:05 1019 30.09 848 25.04 15.8 60.4 40 2.4 36.3
01:10 1019 30.09 848 25.04 16 60.8 40 2.4 36.2
01:15 1019 30.09 848 25.04 16.1 61 40 2.5 36.5
01:20 1019 30.09 848 25.04 16.1 60.9 40 2.6 36.8
01:25 1019 30.09 848 25.04 15.8 60.5 42 3 37.3
01:30 1019 30.09 848 25.04 15.6 60 43 3.2 37.8
01:35 1019 30.09 848 25.04 15.3 59.6 43 3 37.4
01:40 1019 30.09 849 25.07 15.2 59.3 45 3.3 37.9
01:45 1019 30.09 849 25.07 15.1 59.2 44 3.1 37.6
01:50 1020 30.12 849 25.07 15 59 45 3.3 37.9
01:55 1020 30.12 849 25.07 14.7 58.5 48 3.9 38.9
02:00 1019 30.09 849 25.07 13.9 56.9 51 4 39.1
02:05 1020 30.12 849 25.07 13.3 56 51 3.4 38.1
02:10 1020 30.12 849 25.07 13.5 56.3 51 3.7 38.6
02:15 1020 30.12 849 25.07 13.3 55.9 49 2.9 37.3
02:20 1020 30.12 849 25.07 13.4 56.1 52 3.7 38.7
02:25 1020 30.12 849 25.07 12.9 55.2 53 3.7 38.7
02:30 1020 30.12 849 25.07 12.5 54.6 54 3.6 38.5
02:35 1020 30.12 849 25.07 12.5 54.5 53 3.2 37.7
02:40 1020 30.12 849 25.07 12.6 54.7 53 3.3 38
02:45 1020 30.12 849 25.07 12.6 54.6 53 3.4 38.1
02:50 1020 30.12 849 25.07 12.4 54.4 55 3.7 38.6
02:55 1020 30.12 849 25.07 12.2 53.9 55 3.5 38.3
03:00 1020 30.12 849 25.07 12.2 54 54 3.4 38.1
03:05 1020 30.12 849 25.07 12 53.6 55 3.4 38.1
03:10 1020 30.12 849 25.07 12.1 53.8 53 2.9 37.2
03:15 1020 30.12 849 25.07 12.4 54.4 52 3 37.4
03:20 1020 30.12 849 25.07 12.4 54.3 54 3.3 38
03:25 1020 30.12 849 25.07 12.3 54.1 53 3 37.5
03:30 1020 30.12 849 25.07 12.7 54.8 51 2.7 36.9
03:35 1020 30.12 849 25.07 13 55.4 49 2.6 36.7
03:40 1020 30.12 850 25.1 13.1 55.6 49 2.7 36.9
03:45 1020 30.12 850 25.1 13.1 55.6 49 2.6 36.7
03:50 1020 30.12 850 25.1 13 55.5 50 3 37.4
03:55 1020 30.12 850 25.1 12.7 54.9 52 3.2 37.8
04:00 1020 30.12 850 25.1 12.4 54.3 53 3 37.4
04:05 1020 30.12 850 25.1 12.2 54 53 2.9 37.3
04:10 1020 30.12 850 25.1 12.2 54 53 3.1 37.5
04:15 1021 30.15 850 25.1 12.2 54 53 2.9 37.2
04:20 1021 30.15 850 25.1 12.2 54 53 3 37.4
04:25 1021 30.15 850 25.1 12.2 54 52 2.8 37.1
04:30 1021 30.15 850 25.1 12.2 54 52 2.7 36.8
04:35 1021 30.15 850 25.1 12.1 53.7 54 3.1 37.5
04:40 1021 30.15 850 25.1 11.6 52.9 56 3.2 37.8
04:45 1021 30.15 850 25.1 11.6 52.9 53 2.3 36.1
04:50 1021 30.15 850 25.1 12.1 53.8 52 2.6 36.6
04:55 1021 30.15 850 25.1 12 53.6 52 2.6 36.7
05:00 1021 30.15 850 25.1 11.9 53.4 54 3 37.5
05:05 1021 30.15 850 25.1 11.7 53.1 54 2.7 36.9
05:10 1021 30.15 850 25.1 11.6 52.9 55 2.9 37.2
05:15 1021 30.15 850 25.1 11.5 52.7 55 2.7 36.9
05:20 1021 30.15 850 25.1 11.4 52.4 56 3 37.4
05:25 1021 30.15 850 25.1 11.2 52.2 57 3 37.3
05:30 1021 30.15 850 25.1 11.2 52.2 56 2.8 37
05:35 1021 30.15 850 25.1 11.2 52.2 56 2.8 37
05:40 1021 30.15 850 25.1 11.3 52.3 56 2.8 37
05:45 1021 30.15 850 25.1 11.5 52.6 55 2.9 37.1
05:50 1021 30.15 850 25.1 11.5 52.7 56 3.1 37.5
05:55 1021 30.15 850 25.1 11.5 52.7 56 3.1 37.5
06:00 1021 30.15 850 25.1 11.7 53.1 52 2.2 36
06:05 1021 30.15 851 25.13 12.3 54.1 52 2.9 37.1
06:10 1021 30.15 851 25.13 12 53.7 54 3 37.5
06:15 1021 30.15 851 25.13 12 53.5 55 3.2 37.7
06:20 1021 30.15 851 25.13 11.9 53.3 56 3.4 38.2
06:25 1021 30.15 851 25.13 11.9 53.4 54 2.9 37.2
06:30 1021 30.15 851 25.13 12.2 53.9 53 2.8 37.1
06:35 1022 30.18 851 25.13 12.4 54.4 54 3.4 38.2
06:40 1022 30.18 851 25.13 12.8 55.1 50 2.8 37
06:45 1022 30.18 851 25.13 13.1 55.6 55 4.4 39.9
06:50 1022 30.18 851 25.13 12.1 53.8 60 4.5 40.2
06:55 1022 30.18 851 25.13 11.5 52.7 61 4.3 39.8
07:00 1022 30.18 851 25.13 11.6 53 59 4 39.2
07:05 1022 30.18 851 25.13 12.2 54 57 4.1 39.3
07:10 1022 30.18 851 25.13 13.1 55.6 55 4.2 39.6
07:15 1022 30.18 851 25.13 13.7 56.7 52 4.1 39.4
07:20 1022 30.18 851 25.13 13.8 56.8 53 4.5 40.2
07:25 1022 30.18 851 25.13 13.3 55.9 56 4.6 40.4
07:30 1022 30.18 851 25.13 13 55.4 56 4.5 40.1
07:35 1022 30.18 851 25.13 12.8 55.1 56 4.3 39.7
07:40 1022 30.18 851 25.13 13 55.4 54 3.9 39.1
07:45 1022 30.18 851 25.13 13.1 55.5 54 3.9 39.1
07:50 1022 30.18 851 25.13 13.3 56 55 4.5 40.1
07:55 1022 30.18 851 25.13 13.5 56.2 56 5 41
08:00 1022 30.18 851 25.13 13.5 56.3 56 4.9 40.9
08:05 1022 30.18 852 25.16 13.4 56 55 4.5 40.2
08:10 1022 30.18 852 25.16 13.5 56.2 52 4 39.2
08:15 1022 30.18 852 25.16 13.9 57.1 51 4 39.3
08:20 1022 30.18 852 25.16 14 57.2 51 4 39.3
08:25 1022 30.18 852 25.16 14.2 57.6 47 3.2 37.8
08:30 1022 30.18 852 25.16 14.7 58.5 47 3.7 38.7
08:35 1022 30.18 852 25.16 15.2 59.4 44 3.1 37.7
08:40 1022 30.18 852 25.16 15.9 60.5 43 3.2 37.8
08:45 1022 30.18 852 25.16 15.9 60.7 42 3.2 37.7
08:50 1022 30.18 851 25.13 16.2 61.2 41 3 37.5
08:55 1022 30.18 851 25.13 16.5 61.8 40 2.9 37.3
09:00 1022 30.18 851 25.13 16.7 62 39 2.9 37.3
09:05 1022 30.18 851 25.13 16 60.8 42 3.3 37.9
09:10 1022 30.18 851 25.13 16.2 61.2 40 2.8 37
09:15 1022 30.18 851 25.13 17.4 63.4 38 3 37.4
09:20 1022 30.18 851 25.13 17.1 62.7 40 3.7 38.6
09:25 1022 30.18 851 25.13 17 62.6 40 3.6 38.5
09:30 1022 30.18 851 25.13 17.1 62.7 37 2.5 36.5
09:35 1022 30.18 851 25.13 17.9 64.2 39 3.7 38.7
09:40 1022 30.18 851 25.13 18.4 65.2 36 3.1 37.7
09:45 1022 30.18 851 25.13 17.1 62.9 39 3.1 37.6
09:50 1022 30.18 851 25.13 17 62.7 39 3.2 37.7
09:55 1022 30.18 851 25.13 18.2 64.8 36 3.1 37.6
10:00 1022 30.18 851 25.13 18.6 65.5 35 3 37.4
10:05 1022 30.18 851 25.13 18.4 65.1 35 2.8 37.1
10:10 1022 30.18 851 25.13 18.6 65.5 33 2.3 36.2
10:15 1022 30.18 851 25.13 18.5 65.3 35 2.8 37.1
10:20 1022 30.18 851 25.13 18.2 64.8 33 2 35.5
10:25 1022 30.18 851 25.13 18.8 65.8 34 2.7 36.8
10:30 1022 30.18 851 25.13 19.2 66.6 32 2.3 36.2
10:35 1022 30.18 851 25.13 19.2 66.6 33 2.5 36.6
10:40 1022 30.18 851 25.13 19 66.1 35 3.3 37.9
10:45 1022 30.18 851 25.13 18.6 65.4 34 2.4 36.2
10:50 1022 30.18 851 25.13 19.1 66.4 34 3.2 37.7
10:55 1022 30.18 851 25.13 19.5 67.2 32 2.7 36.9
11:00 1022 30.18 851 25.13 19.7 67.4 34 3.5 38.3
11:05 1022 30.18 851 25.13 19.6 67.3 32 2.6 36.7
11:10 1022 30.18 851 25.13 20 68 33 3.3 37.9
11:15 1022 30.18 851 25.13 20.3 68.6 32 3.1 37.5
11:20 1022 30.18 851 25.13 20.4 68.7 31 2.8 37.1
11:25 1022 30.18 851 25.13 20.1 68.3 32 3.1 37.6
11:30 1022 30.18 851 25.13 20 68 32 3 37.4
11:35 1022 30.18 851 25.13 20.2 68.3 31 2.9 37.2
11:40 1022 30.18 851 25.13 19.7 67.4 34 3.5 38.3
11:45 1022 30.18 851 25.13 20.5 68.9 31 3.1 37.6
11:50 1022 30.18 851 25.13 20.7 69.2 31 3 37.5
11:55 1022 30.18 851 25.13 20.3 68.5 31 2.8 37.1
12:00 1022 30.18 851 25.13 20.8 69.5 30 2.7 36.9
12:05 1022 30.18 851 25.13 20.9 69.6 30 2.8 37
12:10 1022 30.18 851 25.13 21.1 69.9 30 3.2 37.7
12:15 1022 30.18 851 25.13 20.9 69.6 31 3.2 37.7
12:20 1022 30.18 851 25.13 21.1 69.9 30 3 37.3
12:25 1022 30.18 851 25.13 20.9 69.5 30 3 37.4
12:30 1022 30.18 851 25.13 21 69.7 31 3.2 37.8
12:35 1022 30.18 851 25.13 21.9 71.4 28 2.8 37
12:40 1022 30.18 851 25.13 21 69.8 31 3.4 38.1
12:45 1022 30.18 851 25.13 20.9 69.6 30 2.8 37
12:50 1022 30.18 851 25.13 21.9 71.4 29 3.1 37.5
12:55 1022 30.18 851 25.13 21.5 70.6 29 3 37.4
13:00 1022 30.18 851 25.13 20.8 69.4 29 2.4 36.3
13:05 1022 30.18 851 25.13 21.4 70.5 29 3 37.3
13:10 1022 30.18 851 25.13 21.7 71.1 29 3.1 37.5
13:15 1022 30.18 851 25.13 22.3 72.2 27 2.5 36.6
13:20 1022 30.18 851 25.13 22.2 71.9 27 2.3 36.2
13:25 1022 30.18 851 25.13 22.4 72.3 26 2.1 35.8
13:30 1022 30.18 851 25.13 22.8 73 25 2 35.7
13:35 1022 30.18 851 25.13 22.8 73.1 27 3.1 37.5
13:40 1022 30.18 851 25.13 23.3 73.9 26 2.7 36.9
13:45 1022 30.18 851 25.13 23.8 74.8 25 2.9 37.3
13:50 1022 30.18 851 25.13 22.4 72.3 27 2.9 37.1
13:55 1022 30.18 851 25.13 21.7 71.1 28 2.5 36.4
14:00 1022 30.18 851 25.13 21.7 71 28 2.5 36.4
14:05 1022 30.18 851 25.13 22.6 72.7 26 2.2 35.9
14:10 1022 30.18 851 25.13 22.3 72.1 26 2.3 36.1
14:15 1022 30.18 851 25.13 22.9 73.3 26 2.5 36.5
14:20 1022 30.18 851 25.13 22.9 73.3 25 2.2 35.9
14:25 1022 30.18 851 25.13 22.2 72 27 2.6 36.6
14:30 1022 30.18 851 25.13 22.5 72.5 27 2.6 36.7
14:35 1022 30.18 851 25.13 22.5 72.5 28 3.1 37.6
14:40 1021 30.15 851 25.13 22.8 73 27 3.2 37.7
14:45 1021 30.15 851 25.13 22.6 72.6 26 2.3 36.1
14:50 1021 30.15 851 25.13 23.1 73.5 26 2.6 36.6
14:55 1021 30.15 851 25.13 22.8 73.1 28 3.4 38.1
15:00 1021 30.15 851 25.13 22.3 72.1 28 3.3 37.9
15:05 1021 30.15 851 25.13 22.1 71.7 28 2.8 37.1
15:10 1021 30.15 851 25.13 22.7 72.8 28 3.5 38.3
15:15 1021 30.15 851 25.13 22.2 72 28 3.1 37.6
15:20 1021 30.15 851 25.13 22.7 72.9 28 3.4 38.1
15:25 1021 30.15 851 25.13 22.8 73.1 27 3.2 37.7
15:30 1021 30.15 851 25.13 23.2 73.7 26 3 37.4
15:35 1021 30.15 851 25.13 23.2 73.7 26 2.8 37.1
15:40 1021 30.15 851 25.13 23.8 74.8 25 3 37.5
15:45 1021 30.15 850 25.1 24.2 75.6 25 3 37.3
15:50 1021 30.15 850 25.1 24.5 76.1 23 2.4 36.2
15:55 1021 30.15 851 25.13 24.3 75.7 25 3.1 37.6
16:00 1021 30.15 851 25.13 24.7 76.4 22 2.1 35.7
16:05 1021 30.15 851 25.13 24.5 76.1 26 3.7 38.7
16:10 1021 30.15 851 25.13 24.1 75.5 24 2.5 36.5
16:15 1021 30.15 851 25.13 24.7 76.4 23 2.4 36.4
16:20 1021 30.15 851 25.13 24.5 76.2 24 2.7 36.9
16:25 1021 30.15 850 25.1 24.6 76.2 23 2.2 36
16:30 1021 30.15 850 25.1 24.6 76.4 24 2.8 37.1
16:35 1021 30.15 850 25.1 24.6 76.3 23 2.3 36.2
16:40 1021 30.15 850 25.1 24.6 76.2 23 2.4 36.3
16:45 1021 30.15 850 25.1 24.2 75.5 24 2.4 36.3
16:50 1021 30.15 850 25.1 23.7 74.7 25 2.5 36.6
16:55 1021 30.15 851 25.13 23 73.5 25 2.4 36.3
17:00 1021 30.15 851 25.13 23.4 74.2 26 3.1 37.6
17:05 1021 30.15 851 25.13 24 75.2 24 2.6 36.7
17:10 1021 30.15 851 25.13 24.1 75.3 25 3.2 37.8
17:15 1021 30.15 851 25.13 24.5 76 24 3.1 37.5
17:20 1021 30.15 851 25.13 23.8 74.8 25 2.9 37.3
17:25 1021 30.15 851 25.13 23.2 73.8 25 2.4 36.3
17:30 1021 30.15 851 25.13 23 73.5 26 2.8 37
17:35 1021 30.15 851 25.13 23.4 74.2 27 3.6 38.5
17:40 1021 30.15 851 25.13 23.6 74.5 25 2.8 37.1
17:45 1021 30.15 851 25.13 24.3 75.8 24 2.7 36.8
17:50 1021 30.15 851 25.13 24.6 76.3 25 3.4 38.2
17:55 1021 30.15 851 25.13 23.4 74.1 26 2.9 37.2
18:00 1021 30.15 851 25.13 23.4 74.2 26 3 37.4
18:05 1021 30.15 851 25.13 23.9 75 25 2.8 37.1
18:10 1021 30.15 851 25.13 23.4 74.1 27 3.4 38.1
18:15 1021 30.15 851 25.13 23.7 74.7 26 3.2 37.8
18:20 1021 30.15 851 25.13 24.3 75.8 25 3.4 38
18:25 1021 30.15 851 25.13 23.5 74.4 26 3.2 37.8
18:30 1021 30.15 851 25.13 22.9 73.2 27 2.9 37.3
18:35 1021 30.15 851 25.13 23.6 74.6 26 3.1 37.5
18:40 1021 30.15 851 25.13 24.1 75.4 26 3.4 38.2
18:45 1021 30.15 851 25.13 24.2 75.6 25 3.2 37.7
18:50 1022 30.18 851 25.13 24.4 75.8 25 3.3 37.9
18:55 1022 30.18 851 25.13 24.4 76 25 3.3 38
19:00 1022 30.18 851 25.13 24.3 75.7 25 3.4 38.2
19:05 1022 30.18 851 25.13 23.8 74.8 27 3.6 38.5
19:10 1022 30.18 851 25.13 23.2 73.8 27 3.3 38
19:15 1022 30.18 851 25.13 23.2 73.7 26 3.1 37.5
19:20 1022 30.18 851 25.13 23.3 73.9 27 3.4 38.2
19:25 1022 30.18 851 25.13 22.9 73.2 27 3.1 37.6
19:30 1022 30.18 851 25.13 22.8 73.1 27 3 37.4
19:35 1022 30.18 851 25.13 22.4 72.4 28 3 37.4
19:40 1022 30.18 851 25.13 22.4 72.2 27 2.6 36.8
19:45 1022 30.18 851 25.13 22.3 72.2 27 2.9 37.2
19:50 1022 30.18 851 25.13 22.2 72 28 3 37.4
19:55 1022 30.18 851 25.13 22.1 71.7 28 2.9 37.2
20:00 1022 30.18 851 25.13 22.1 71.8 28 2.7 36.9
20:05 1022 30.18 851 25.13 22.1 71.7 28 2.9 37.3
20:10 1022 30.18 851 25.13 22 71.5 29 3.1 37.6
20:15 1022 30.18 851 25.13 21.8 71.2 28 2.6 36.7
20:20 1022 30.18 851 25.13 21.7 71.1 28 2.8 37
20:25 1022 30.18 851 25.13 21.6 70.8 29 2.9 37.3
20:30 1022 30.18 851 25.13 21.5 70.6 29 2.8 37.1
20:35 1022 30.18 851 25.13 21.4 70.5 30 3.1 37.6
20:40 1022 30.18 851 25.13 21.3 70.4 30 3.3 38
20:45 1022 30.18 851 25.13 21.2 70.2 30 3.1 37.6
20:50 1022 30.18 851 25.13 21.2 70.2 30 3.3 37.9
20:55 1022 30.18 851 25.13 21.2 70.1 31 3.5 38.3
21:00 1022 30.18 851 25.13 21.1 69.9 31 3.6 38.5
21:05 1022 30.18 851 25.13 21 69.8 32 3.8 38.8
21:10 1022 30.18 852 25.16 20.9 69.5 32 3.7 38.7
21:15 1022 30.18 852 25.16 20.6 69.1 32 3.7 38.7
21:20 1022 30.18 852 25.16 20.4 68.7 33 3.7 38.7
21:25 1022 30.18 852 25.16 20.4 68.6 33 3.6 38.5
21:30 1023 30.21 852 25.16 20.2 68.3 33 3.8 38.8
21:35 1023 30.21 852 25.16 20 68 34 4 39.2
21:40 1023 30.21 852 25.16 19.8 67.7 35 4.2 39.6
21:45 1023 30.21 852 25.16 19.4 66.9 42 6.4 43.6
21:50 1023 30.21 852 25.16 17.9 64.3 48 6.9 44.4
21:55 1023 30.21 852 25.16 17.5 63.4 49 6.6 43.9
22:00 1023 30.21 852 25.16 17.3 63.2 51 7.3 45.2
22:05 1023 30.21 852 25.16 17.1 62.7 53 7.5 45.5
22:10 1023 30.21 852 25.16 17.2 62.9 50 6.8 44.2
22:15 1023 30.21 852 25.16 17 62.5 48 6.1 42.9
22:20 1023 30.21 853 25.19 16.6 61.9 51 6.6 43.9
22:25 1023 30.21 853 25.19 16.5 61.6 52 6.6 43.8
22:30 1023 30.21 853 25.19 16.2 61.2 47 4.9 40.9
22:35 1024 30.24 853 25.19 16.3 61.3 51 6.1 43
22:40 1024 30.24 853 25.19 15.8 60.4 50 5.3 41.6
22:45 1024 30.24 853 25.19 15.9 60.7 46 4.4 40
22:50 1024 30.24 853 25.19 16.2 61.2 45 4.3 39.8
22:55 1024 30.24 853 25.19 16.4 61.5 45 4.4 39.9
23:00 1024 30.24 853 25.19 16.3 61.4 46 4.7 40.5
23:05 1024 30.24 853 25.19 16.2 61.1 45 4.5 40
23:10 1024 30.24 853 25.19 16.2 61.1 44 4.1 39.3
23:15 1024 30.24 853 25.19 16.2 61.1 44 4.1 39.3
23:20 1024 30.24 853 25.19 16.2 61.1 44 4 39.2
23:25 1024 30.24 853 25.19 16.1 60.9 45 4.2 39.6
23:30 1024 30.24 853 25.19 15.9 60.6 45 4.1 39.4
23:35 1024 30.24 853 25.19 15.8 60.5 45 3.9 39
23:40 1024 30.24 853 25.19 15.8 60.4 44 3.7 38.6
23:45 1024 30.24 853 25.19 15.7 60.3 45 3.8 38.9
23:50 1024 30.24 853 25.19 15.6 60.1 44 3.5 38.4
23:55 1024 30.24 853 25.19 15.5 59.9 44 3.5 38.3
24:00 1024 30.24 853 25.19 15.4 59.7 43 3.1 37.6